LS Concorde — ZDHJ7 — position and weather

sailwx.info

Track history (hours):
 
Tides and Currents Weather Stations Pressure Air Temp Water Temp Dewpoint Dewpoint Depression Visibility Wind Speed Wind Dir Waves Ship Positions

LS Concorde

Last reported at 2017-Nov-18 06:08 UTC. Time now 2017-Nov-18 08:59 UTC.
Position N 52°25' E 004°51'.

Length 99 m; draft 6.1 m.

Type: Tanker. MMSI: 236329000.

Date/timePositionNaut miles runAvg speedWind from/ knotsBaromVisibWave heightAir tempDewpointWater temp
2017-Nov-18 06:08N 52°25' E 004°51'0 0.0
2017-Nov-18 05:32N 52°25' E 004°51'0 0.0
2017-Nov-18 05:11N 52°25' E 004°51'0 0.0
2017-Nov-18 04:50N 52°25' E 004°51'0 0.0
2017-Nov-18 04:08N 52°25' E 004°51'0 0.0
2017-Nov-17 10:05N 52°25' E 004°51'0 0.0
2017-Nov-17 09:53N 52°25' E 004°51'0 0.0
2017-Nov-17 09:26N 52°25' E 004°51'0 0.0
2017-Nov-17 08:59N 52°25' E 004°51'0 0.0
2017-Nov-17 08:26N 52°25' E 004°51'0 0.0
2017-Nov-17 06:05N 52°25' E 004°51'0 0.0
2017-Nov-17 05:59N 52°25' E 004°51'0 0.0
2017-Nov-17 05:14N 52°25' E 004°51'0 0.0
2017-Nov-17 04:41N 52°25' E 004°51'0 0.0
2017-Nov-17 04:20N 52°25' E 004°51'0 0.0
2017-Nov-17 03:56N 52°25' E 004°51'0 0.0
2017-Nov-17 03:17N 52°25' E 004°51'0 0.0
2017-Nov-17 02:44N 52°25' E 004°51'0 0.0
2017-Nov-17 02:29N 52°25' E 004°51'0 0.5
2017-Nov-17 02:01N 52°25' E 004°51'3 5.2
2017-Nov-17 01:31N 52°25' E 004°47'4 8.4
2017-Nov-17 01:00N 52°27' E 004°41'3 6.2
2017-Nov-17 00:30N 52°28' E 004°36'1 1.1
2017-Nov-17 00:00N 52°28' E 004°35'5 9.8
2017-Nov-16 23:30N 52°28' E 004°27'611.0
2017-Nov-16 23:00N 52°29' E 004°18'612.1
2017-Nov-16 22:30N 52°31' E 004°08'713.2
2017-Nov-16 22:00N 52°37' E 004°04'15910.7
2017-Nov-16 07:05N 54°02' E 007°49'210.5
2017-Nov-16 06:56N 54°01' E 007°52'410.5
2017-Nov-16 06:30N 54°01' E 007°59'510.5
2017-Nov-16 06:00N 54°00' E 008°08'5 9.7
2017-Nov-16 05:30N 53°60' E 008°16'612.1
2017-Nov-16 05:00N 53°59' E 008°27'612.5
2017-Nov-16 04:30N 53°58' E 008°37'714.1
2017-Nov-16 04:00N 53°52' E 008°44'713.5
2017-Nov-16 03:30N 53°51' E 008°55'714.6
2017-Nov-16 03:00N 53°53' E 009°07'1 2.3
2017-Nov-16 02:30N 53°54' E 009°09'2 3.1
2017-Nov-16 02:00N 53°55' E 009°11'3 5.5
2017-Nov-16 01:30N 53°57' E 009°14'2 4.4
2017-Nov-16 01:00N 53°59' E 009°16'4 8.4
2017-Nov-16 00:30N 54°03' E 009°18'4 7.4
2017-Nov-15 23:57N 54°07' E 009°20'2 5.4
2017-Nov-15 23:30N 54°09' E 009°21'4 8.3
2017-Nov-15 23:00N 54°11' E 009°28'4 8.5
2017-Nov-15 22:30N 54°12' E 009°34'4 7.1
2017-Nov-15 22:00N 54°15' E 009°37'2 4.3
2017-Nov-15 21:30N 54°17' E 009°39'3 6.2
2017-Nov-15 21:00N 54°19' E 009°43'3 6.1
2017-Nov-15 20:30N 54°21' E 009°47'21 5.9
2017-Nov-15 16:54N 54°31' E 010°20'511.1
2017-Nov-15 16:29N 54°33' E 010°27'611.5
2017-Nov-15 16:00N 54°35' E 010°36'611.2
2017-Nov-15 15:30N 54°37' E 010°45'611.5
2017-Nov-15 15:00N 54°43' E 010°49'611.5
2017-Nov-15 14:30N 54°48' E 010°51'612.1
2017-Nov-15 14:00N 54°54' E 010°53'611.8
2017-Nov-15 13:30N 54°59' E 010°59'612.2
2017-Nov-15 13:00N 55°05' E 011°01'612.0
2017-Nov-15 12:30N 55°11' E 011°02'611.8
2017-Nov-15 12:00N 55°16' E 010°58'5 9.8
2017-Nov-15 11:29N 55°17' E 010°49'1 2.5
2017-Nov-15 10:59N 55°18' E 010°47'  
2017-Nov-12 20:15N 57°12' E 011°34'312.4
2017-Nov-12 19:59N 57°15' E 011°32'612.2
2017-Nov-12 19:30N 57°20' E 011°28'612.3
2017-Nov-12 19:00N 57°26' E 011°25'611.8
2017-Nov-12 18:30N 57°31' E 011°17'611.2
2017-Nov-12 18:00N 57°35' E 011°10'511.1
2017-Nov-12 17:30N 57°38' E 011°02'612.3
2017-Nov-12 17:00N 57°42' E 010°54'611.9
2017-Nov-12 16:30N 57°46' E 010°45'612.1
2017-Nov-12 15:59N 57°47' E 010°33'33610.5
2017-Nov-11 07:58N 53°18' E 004°38'510.8
2017-Nov-11 07:30N 53°13' E 004°35'611.0
2017-Nov-11 06:59N 53°08' E 004°30'5 9.8
2017-Nov-11 06:30N 53°04' E 004°26'5 9.7
2017-Nov-11 06:00N 53°00' E 004°22'5 9.4
2017-Nov-11 05:29N 52°56' E 004°19'4 9.1
2017-Nov-11 05:00N 52°51' E 004°17'5 9.4
2017-Nov-11 04:30N 52°48' E 004°12'5 9.1
2017-Nov-11 03:59N 52°44' E 004°08'4 8.6
2017-Nov-11 03:30N 52°40' E 004°04'4 8.9
2017-Nov-11 03:00N 52°36' E 004°00'4 8.6
2017-Nov-11 02:30N 52°33' E 003°57'4 8.0
2017-Nov-11 02:00N 52°29' E 003°55'4 7.6
2017-Nov-11 01:30N 52°25' E 003°54'4 7.2
2017-Nov-11 01:00N 52°22' E 003°53'4 7.2
2017-Nov-11 00:30N 52°18' E 003°52'3 6.6
2017-Nov-11 00:00N 52°15' E 003°53'4 7.0
2017-Nov-10 23:30N 52°11' E 003°54'4 7.2
2017-Nov-10 23:00N 52°08' E 003°55'4 7.0
2017-Nov-10 22:30N 52°05' E 003°58'4 7.3
2017-Nov-10 22:00N 52°02' E 004°00'5 9.0
2017-Nov-10 21:30N 51°59' E 004°06'510.3
2017-Nov-10 21:00N 51°56' E 004°13'510.3
2017-Nov-10 20:30N 51°54' E 004°21'1 2.4
2017-Nov-10 19:59N 51°53' E 004°23'0 0.0
2017-Nov-10 19:29N 51°53' E 004°23'0 0.0
2017-Nov-10 18:59N 51°53' E 004°23'0 0.0
2017-Nov-10 18:29N 51°53' E 004°23'0 0.0
2017-Nov-10 17:59N 51°53' E 004°23'0 0.0
2017-Nov-10 17:29N 51°53' E 004°23'0 0.0
2017-Nov-10 16:59N 51°53' E 004°23'0 0.0
2017-Nov-10 16:29N 51°53' E 004°23'0 0.0
2017-Nov-10 15:59N 51°53' E 004°23'0 0.0
2017-Nov-10 15:29N 51°53' E 004°23'0 0.0
2017-Nov-10 14:59N 51°53' E 004°23'0 0.0
2017-Nov-10 14:29N 51°53' E 004°23'0 0.0
2017-Nov-10 13:59N 51°53' E 004°23'0 0.0
2017-Nov-10 13:29N 51°53' E 004°23'0 0.0
2017-Nov-10 12:59N 51°53' E 004°23'0 0.0
2017-Nov-10 12:29N 51°53' E 004°23'0 0.0
2017-Nov-10 11:59N 51°53' E 004°23'0 0.0
2017-Nov-10 11:29N 51°53' E 004°23'0 0.0
2017-Nov-10 10:59N 51°53' E 004°23'0 0.0
2017-Nov-10 10:29N 51°53' E 004°23'0 0.0
2017-Nov-10 09:59N 51°53' E 004°23'0 0.0
2017-Nov-10 09:29N 51°53' E 004°23'0 0.0
2017-Nov-10 08:59N 51°53' E 004°23'0 0.0
2017-Nov-10 08:29N 51°53' E 004°23'0 0.0
2017-Nov-10 07:59N 51°53' E 004°23'0 0.0
2017-Nov-10 07:29N 51°53' E 004°23'0 0.0
2017-Nov-10 06:56N 51°53' E 004°23'0 0.0
2017-Nov-10 06:29N 51°53' E 004°23'0 0.0
2017-Nov-10 05:59N 51°53' E 004°23'0 0.0
2017-Nov-10 05:29N 51°53' E 004°23'0 0.0
2017-Nov-10 04:59N 51°53' E 004°23'0 0.0
2017-Nov-10 04:29N 51°53' E 004°23'0 0.0
2017-Nov-10 03:59N 51°53' E 004°23'0 0.0
2017-Nov-10 03:29N 51°53' E 004°23'0 0.0
2017-Nov-10 02:59N 51°53' E 004°23'0 0.0
2017-Nov-10 02:29N 51°53' E 004°23'0 0.0
2017-Nov-10 01:59N 51°53' E 004°23'0 0.0
2017-Nov-10 01:29N 51°53' E 004°23'0 0.0
2017-Nov-10 00:59N 51°53' E 004°23'0 0.0
2017-Nov-10 00:29N 51°53' E 004°23'0 0.0
2017-Nov-09 23:59N 51°53' E 004°23'0 0.0
2017-Nov-09 23:29N 51°53' E 004°23'0 0.0
2017-Nov-09 22:59N 51°53' E 004°23'0 0.0
2017-Nov-09 22:29N 51°53' E 004°23'0 0.0
2017-Nov-09 21:59N 51°53' E 004°23'0 0.0
2017-Nov-09 21:29N 51°53' E 004°23'0 0.0
2017-Nov-09 20:59N 51°53' E 004°23'0 0.0
2017-Nov-09 20:29N 51°53' E 004°23'0 0.0
2017-Nov-09 19:59N 51°53' E 004°23'0 0.0
2017-Nov-09 19:29N 51°53' E 004°23'0 0.0
2017-Nov-09 18:59N 51°53' E 004°23'0 0.0
2017-Nov-09 18:29N 51°53' E 004°23'0 0.0
2017-Nov-09 17:59N 51°53' E 004°23'0 0.0
2017-Nov-09 17:29N 51°53' E 004°23'0 0.0
2017-Nov-09 16:59N 51°53' E 004°23'0 0.0
2017-Nov-09 16:29N 51°53' E 004°23'0 0.0
2017-Nov-09 15:59N 51°53' E 004°23'0 0.0
2017-Nov-09 15:29N 51°53' E 004°23'0 0.0
2017-Nov-09 14:59N 51°53' E 004°23'0 0.0
2017-Nov-09 14:29N 51°53' E 004°23'0 0.0
2017-Nov-09 13:59N 51°53' E 004°23'0 0.0
2017-Nov-09 13:29N 51°53' E 004°23'0 0.0
2017-Nov-09 12:59N 51°53' E 004°23'0 0.0
2017-Nov-09 12:29N 51°53' E 004°23'0 0.0
2017-Nov-09 11:59N 51°53' E 004°23'0 0.0
2017-Nov-09 11:29N 51°53' E 004°23'0 0.0
2017-Nov-09 10:59N 51°53' E 004°23'0 0.0
2017-Nov-09 10:29N 51°53' E 004°23'0 0.0
2017-Nov-09 09:59N 51°53' E 004°23'0 0.0
2017-Nov-09 09:29N 51°53' E 004°23'0 0.0
2017-Nov-09 08:59N 51°53' E 004°23'0 0.0
2017-Nov-09 08:29N 51°53' E 004°23'0 0.0
2017-Nov-09 07:59N 51°53' E 004°23'0 0.0
2017-Nov-09 07:29N 51°53' E 004°23'0 0.0
2017-Nov-09 06:59N 51°53' E 004°23'0 0.0
2017-Nov-09 06:29N 51°53' E 004°23'0 0.0
2017-Nov-09 05:59N 51°53' E 004°23'0 0.0
2017-Nov-09 05:29N 51°53' E 004°23'0 0.0
2017-Nov-09 04:59N 51°53' E 004°23'0 0.0
2017-Nov-09 04:29N 51°53' E 004°23'0 0.0
2017-Nov-09 03:59N 51°53' E 004°23'0 0.0
2017-Nov-09 03:29N 51°53' E 004°23'0 0.0
2017-Nov-09 02:59N 51°53' E 004°23'0 0.0
2017-Nov-09 02:29N 51°53' E 004°23'0 0.0
2017-Nov-09 01:59N 51°53' E 004°23'0 0.0
2017-Nov-09 01:29N 51°53' E 004°23'0 0.0
2017-Nov-09 00:59N 51°53' E 004°23'0 0.1
2017-Nov-09 00:30N 51°53' E 004°23'1 1.6
2017-Nov-09 00:00N 51°54' E 004°22'4 8.9
2017-Nov-08 23:30N 51°55' E 004°15'510.4
2017-Nov-08 23:00N 51°58' E 004°08'510.3
2017-Nov-08 22:30N 51°60' E 004°00'611.5
2017-Nov-08 22:00N 52°00' E 003°51'611.1
2017-Nov-08 21:30N 51°58' E 003°42'1112.7
2017-Nov-08 20:39N 51°55' E 003°26'312.1
2017-Nov-08 20:24N 51°53' E 003°22'513.3
2017-Nov-08 20:00N 51°48' E 003°18'510.5
2017-Nov-08 19:30N 51°43' E 003°17'713.6
2017-Nov-08 19:00N 51°37' E 003°22'714.5
2017-Nov-08 18:30N 51°31' E 003°27'713.7
2017-Nov-08 18:00N 51°26' E 003°35'5 9.5
2017-Nov-08 17:30N 51°25' E 003°43'611.1
2017-Nov-08 17:00N 51°21' E 003°49'1 1.4
2017-Nov-08 16:31N 51°20' E 003°49'3 5.4
2017-Nov-08 16:01N 51°17' E 003°50'2 4.0
2017-Nov-08 15:30N 51°15' E 003°50'2 4.3
2017-Nov-08 15:00N 51°13' E 003°48'1 2.0
2017-Nov-08 14:30N 51°12' E 003°48'0 0.0
2017-Nov-08 14:00N 51°12' E 003°48'0 0.0
2017-Nov-08 13:30N 51°12' E 003°48'0 0.0
2017-Nov-08 13:00N 51°12' E 003°48'0 0.0
2017-Nov-08 12:30N 51°12' E 003°48'0 0.0
2017-Nov-08 12:00N 51°12' E 003°48'0 0.0
2017-Nov-08 11:30N 51°12' E 003°48'0 0.0
2017-Nov-08 11:00N 51°12' E 003°48'0 0.0
2017-Nov-08 10:30N 51°12' E 003°48'0 0.0
2017-Nov-08 10:00N 51°12' E 003°48'0 0.0
2017-Nov-08 09:30N 51°12' E 003°48'0 0.0
2017-Nov-08 09:00N 51°12' E 003°48'0 0.0
2017-Nov-08 08:30N 51°12' E 003°48'0 0.0
2017-Nov-08 08:00N 51°12' E 003°48'0 0.0
2017-Nov-08 07:30N 51°12' E 003°48'0 0.0
2017-Nov-08 07:00N 51°12' E 003°48'0 0.0
2017-Nov-08 06:30N 51°12' E 003°48'  
Track history (hours):
 
Tides and Currents Weather Stations Pressure Air Temp Water Temp Dewpoint Dewpoint Depression Visibility Wind Speed Wind Dir Waves Ship Positions

LS Concorde

Last reported at 2017-Nov-18 06:08 UTC. Time now 2017-Nov-18 08:59 UTC.
Position N 52°25' E 004°51'.

Length 99 m; draft 6.1 m.

Type: Tanker. MMSI: 236329000.

Date/timePositionNaut miles runAvg speedWind from/ knotsBaromVisibWave heightAir tempDewpointWater temp
2017-Nov-18 06:08N 52°25' E 004°51'0 0.0
2017-Nov-18 05:32N 52°25' E 004°51'0 0.0
2017-Nov-18 05:11N 52°25' E 004°51'0 0.0
2017-Nov-18 04:50N 52°25' E 004°51'0 0.0
2017-Nov-18 04:08N 52°25' E 004°51'0 0.0
2017-Nov-17 10:05N 52°25' E 004°51'0 0.0
2017-Nov-17 09:53N 52°25' E 004°51'0 0.0
2017-Nov-17 09:26N 52°25' E 004°51'0 0.0
2017-Nov-17 08:59N 52°25' E 004°51'0 0.0
2017-Nov-17 08:26N 52°25' E 004°51'0 0.0
2017-Nov-17 06:05N 52°25' E 004°51'0 0.0
2017-Nov-17 05:59N 52°25' E 004°51'0 0.0
2017-Nov-17 05:14N 52°25' E 004°51'0 0.0
2017-Nov-17 04:41N 52°25' E 004°51'0 0.0
2017-Nov-17 04:20N 52°25' E 004°51'0 0.0
2017-Nov-17 03:56N 52°25' E 004°51'0 0.0
2017-Nov-17 03:17N 52°25' E 004°51'0 0.0
2017-Nov-17 02:44N 52°25' E 004°51'0 0.0
2017-Nov-17 02:29N 52°25' E 004°51'0 0.5
2017-Nov-17 02:01N 52°25' E 004°51'3 5.2
2017-Nov-17 01:31N 52°25' E 004°47'4 8.4
2017-Nov-17 01:00N 52°27' E 004°41'3 6.2
2017-Nov-17 00:30N 52°28' E 004°36'1 1.1
2017-Nov-17 00:00N 52°28' E 004°35'5 9.8
2017-Nov-16 23:30N 52°28' E 004°27'611.0
2017-Nov-16 23:00N 52°29' E 004°18'612.1
2017-Nov-16 22:30N 52°31' E 004°08'713.2
2017-Nov-16 22:00N 52°37' E 004°04'15910.7
2017-Nov-16 07:05N 54°02' E 007°49'210.5
2017-Nov-16 06:56N 54°01' E 007°52'410.5
2017-Nov-16 06:30N 54°01' E 007°59'510.5
2017-Nov-16 06:00N 54°00' E 008°08'5 9.7
2017-Nov-16 05:30N 53°60' E 008°16'612.1
2017-Nov-16 05:00N 53°59' E 008°27'612.5
2017-Nov-16 04:30N 53°58' E 008°37'714.1
2017-Nov-16 04:00N 53°52' E 008°44'713.5
2017-Nov-16 03:30N 53°51' E 008°55'714.6
2017-Nov-16 03:00N 53°53' E 009°07'1 2.3
2017-Nov-16 02:30N 53°54' E 009°09'2 3.1
2017-Nov-16 02:00N 53°55' E 009°11'3 5.5
2017-Nov-16 01:30N 53°57' E 009°14'2 4.4
2017-Nov-16 01:00N 53°59' E 009°16'4 8.4
2017-Nov-16 00:30N 54°03' E 009°18'4 7.4
2017-Nov-15 23:57N 54°07' E 009°20'2 5.4
2017-Nov-15 23:30N 54°09' E 009°21'4 8.3
2017-Nov-15 23:00N 54°11' E 009°28'4 8.5
2017-Nov-15 22:30N 54°12' E 009°34'4 7.1
2017-Nov-15 22:00N 54°15' E 009°37'2 4.3
2017-Nov-15 21:30N 54°17' E 009°39'3 6.2
2017-Nov-15 21:00N 54°19' E 009°43'3 6.1
2017-Nov-15 20:30N 54°21' E 009°47'21 5.9
2017-Nov-15 16:54N 54°31' E 010°20'511.1
2017-Nov-15 16:29N 54°33' E 010°27'611.5
2017-Nov-15 16:00N 54°35' E 010°36'611.2
2017-Nov-15 15:30N 54°37' E 010°45'611.5
2017-Nov-15 15:00N 54°43' E 010°49'611.5
2017-Nov-15 14:30N 54°48' E 010°51'612.1
2017-Nov-15 14:00N 54°54' E 010°53'611.8
2017-Nov-15 13:30N 54°59' E 010°59'612.2
2017-Nov-15 13:00N 55°05' E 011°01'612.0
2017-Nov-15 12:30N 55°11' E 011°02'611.8
2017-Nov-15 12:00N 55°16' E 010°58'5 9.8
2017-Nov-15 11:29N 55°17' E 010°49'1 2.5
2017-Nov-15 10:59N 55°18' E 010°47'  
2017-Nov-12 20:15N 57°12' E 011°34'312.4
2017-Nov-12 19:59N 57°15' E 011°32'612.2
2017-Nov-12 19:30N 57°20' E 011°28'612.3
2017-Nov-12 19:00N 57°26' E 011°25'611.8
2017-Nov-12 18:30N 57°31' E 011°17'611.2
2017-Nov-12 18:00N 57°35' E 011°10'511.1
2017-Nov-12 17:30N 57°38' E 011°02'612.3
2017-Nov-12 17:00N 57°42' E 010°54'611.9
2017-Nov-12 16:30N 57°46' E 010°45'612.1
2017-Nov-12 15:59N 57°47' E 010°33'33610.5
2017-Nov-11 07:58N 53°18' E 004°38'510.8
2017-Nov-11 07:30N 53°13' E 004°35'611.0
2017-Nov-11 06:59N 53°08' E 004°30'5 9.8
2017-Nov-11 06:30N 53°04' E 004°26'5 9.7
2017-Nov-11 06:00N 53°00' E 004°22'5 9.4
2017-Nov-11 05:29N 52°56' E 004°19'4 9.1
2017-Nov-11 05:00N 52°51' E 004°17'5 9.4
2017-Nov-11 04:30N 52°48' E 004°12'5 9.1
2017-Nov-11 03:59N 52°44' E 004°08'4 8.6
2017-Nov-11 03:30N 52°40' E 004°04'4 8.9
2017-Nov-11 03:00N 52°36' E 004°00'4 8.6
2017-Nov-11 02:30N 52°33' E 003°57'4 8.0
2017-Nov-11 02:00N 52°29' E 003°55'4 7.6
2017-Nov-11 01:30N 52°25' E 003°54'4 7.2
2017-Nov-11 01:00N 52°22' E 003°53'4 7.2
2017-Nov-11 00:30N 52°18' E 003°52'3 6.6
2017-Nov-11 00:00N 52°15' E 003°53'4 7.0
2017-Nov-10 23:30N 52°11' E 003°54'4 7.2
2017-Nov-10 23:00N 52°08' E 003°55'4 7.0
2017-Nov-10 22:30N 52°05' E 003°58'4 7.3
2017-Nov-10 22:00N 52°02' E 004°00'5 9.0
2017-Nov-10 21:30N 51°59' E 004°06'510.3
2017-Nov-10 21:00N 51°56' E 004°13'510.3
2017-Nov-10 20:30N 51°54' E 004°21'1 2.4
2017-Nov-10 19:59N 51°53' E 004°23'0 0.0
2017-Nov-10 19:29N 51°53' E 004°23'0 0.0
2017-Nov-10 18:59N 51°53' E 004°23'0 0.0
2017-Nov-10 18:29N 51°53' E 004°23'0 0.0
2017-Nov-10 17:59N 51°53' E 004°23'0 0.0
2017-Nov-10 17:29N 51°53' E 004°23'0 0.0
2017-Nov-10 16:59N 51°53' E 004°23'0 0.0
2017-Nov-10 16:29N 51°53' E 004°23'0 0.0
2017-Nov-10 15:59N 51°53' E 004°23'0 0.0
2017-Nov-10 15:29N 51°53' E 004°23'0 0.0
2017-Nov-10 14:59N 51°53' E 004°23'0 0.0
2017-Nov-10 14:29N 51°53' E 004°23'0 0.0
2017-Nov-10 13:59N 51°53' E 004°23'0 0.0
2017-Nov-10 13:29N 51°53' E 004°23'0 0.0
2017-Nov-10 12:59N 51°53' E 004°23'0 0.0
2017-Nov-10 12:29N 51°53' E 004°23'0 0.0
2017-Nov-10 11:59N 51°53' E 004°23'0 0.0
2017-Nov-10 11:29N 51°53' E 004°23'0 0.0
2017-Nov-10 10:59N 51°53' E 004°23'0 0.0
2017-Nov-10 10:29N 51°53' E 004°23'0 0.0
2017-Nov-10 09:59N 51°53' E 004°23'0 0.0
2017-Nov-10 09:29N 51°53' E 004°23'0 0.0
2017-Nov-10 08:59N 51°53' E 004°23'0 0.0
2017-Nov-10 08:29N 51°53' E 004°23'0 0.0
2017-Nov-10 07:59N 51°53' E 004°23'0 0.0
2017-Nov-10 07:29N 51°53' E 004°23'0 0.0
2017-Nov-10 06:56N 51°53' E 004°23'0 0.0
2017-Nov-10 06:29N 51°53' E 004°23'0 0.0
2017-Nov-10 05:59N 51°53' E 004°23'0 0.0
2017-Nov-10 05:29N 51°53' E 004°23'0 0.0
2017-Nov-10 04:59N 51°53' E 004°23'0 0.0
2017-Nov-10 04:29N 51°53' E 004°23'0 0.0
2017-Nov-10 03:59N 51°53' E 004°23'0 0.0
2017-Nov-10 03:29N 51°53' E 004°23'0 0.0
2017-Nov-10 02:59N 51°53' E 004°23'0 0.0
2017-Nov-10 02:29N 51°53' E 004°23'0 0.0
2017-Nov-10 01:59N 51°53' E 004°23'0 0.0
2017-Nov-10 01:29N 51°53' E 004°23'0 0.0
2017-Nov-10 00:59N 51°53' E 004°23'0 0.0
2017-Nov-10 00:29N 51°53' E 004°23'0 0.0
2017-Nov-09 23:59N 51°53' E 004°23'0 0.0
2017-Nov-09 23:29N 51°53' E 004°23'0 0.0
2017-Nov-09 22:59N 51°53' E 004°23'0 0.0
2017-Nov-09 22:29N 51°53' E 004°23'0 0.0
2017-Nov-09 21:59N 51°53' E 004°23'0 0.0
2017-Nov-09 21:29N 51°53' E 004°23'0 0.0
2017-Nov-09 20:59N 51°53' E 004°23'0 0.0
2017-Nov-09 20:29N 51°53' E 004°23'0 0.0
2017-Nov-09 19:59N 51°53' E 004°23'0 0.0
2017-Nov-09 19:29N 51°53' E 004°23'0 0.0
2017-Nov-09 18:59N 51°53' E 004°23'0 0.0
2017-Nov-09 18:29N 51°53' E 004°23'0 0.0
2017-Nov-09 17:59N 51°53' E 004°23'0 0.0
2017-Nov-09 17:29N 51°53' E 004°23'0 0.0
2017-Nov-09 16:59N 51°53' E 004°23'0 0.0
2017-Nov-09 16:29N 51°53' E 004°23'0 0.0
2017-Nov-09 15:59N 51°53' E 004°23'0 0.0
2017-Nov-09 15:29N 51°53' E 004°23'0 0.0
2017-Nov-09 14:59N 51°53' E 004°23'0 0.0
2017-Nov-09 14:29N 51°53' E 004°23'0 0.0
2017-Nov-09 13:59N 51°53' E 004°23'0 0.0
2017-Nov-09 13:29N 51°53' E 004°23'0 0.0
2017-Nov-09 12:59N 51°53' E 004°23'0 0.0
2017-Nov-09 12:29N 51°53' E 004°23'0 0.0
2017-Nov-09 11:59N 51°53' E 004°23'0 0.0
2017-Nov-09 11:29N 51°53' E 004°23'0 0.0
2017-Nov-09 10:59N 51°53' E 004°23'0 0.0
2017-Nov-09 10:29N 51°53' E 004°23'0 0.0
2017-Nov-09 09:59N 51°53' E 004°23'0 0.0
2017-Nov-09 09:29N 51°53' E 004°23'0 0.0
2017-Nov-09 08:59N 51°53' E 004°23'0 0.0
2017-Nov-09 08:29N 51°53' E 004°23'0 0.0
2017-Nov-09 07:59N 51°53' E 004°23'0 0.0
2017-Nov-09 07:29N 51°53' E 004°23'0 0.0
2017-Nov-09 06:59N 51°53' E 004°23'0 0.0
2017-Nov-09 06:29N 51°53' E 004°23'0 0.0
2017-Nov-09 05:59N 51°53' E 004°23'0 0.0
2017-Nov-09 05:29N 51°53' E 004°23'0 0.0
2017-Nov-09 04:59N 51°53' E 004°23'0 0.0
2017-Nov-09 04:29N 51°53' E 004°23'0 0.0
2017-Nov-09 03:59N 51°53' E 004°23'0 0.0
2017-Nov-09 03:29N 51°53' E 004°23'0 0.0
2017-Nov-09 02:59N 51°53' E 004°23'0 0.0
2017-Nov-09 02:29N 51°53' E 004°23'0 0.0
2017-Nov-09 01:59N 51°53' E 004°23'0 0.0
2017-Nov-09 01:29N 51°53' E 004°23'0 0.0
2017-Nov-09 00:59N 51°53' E 004°23'0 0.1
2017-Nov-09 00:30N 51°53' E 004°23'1 1.6
2017-Nov-09 00:00N 51°54' E 004°22'4 8.9
2017-Nov-08 23:30N 51°55' E 004°15'510.4
2017-Nov-08 23:00N 51°58' E 004°08'510.3
2017-Nov-08 22:30N 51°60' E 004°00'611.5
2017-Nov-08 22:00N 52°00' E 003°51'611.1
2017-Nov-08 21:30N 51°58' E 003°42'1112.7
2017-Nov-08 20:39N 51°55' E 003°26'312.1
2017-Nov-08 20:24N 51°53' E 003°22'513.3
2017-Nov-08 20:00N 51°48' E 003°18'510.5
2017-Nov-08 19:30N 51°43' E 003°17'713.6
2017-Nov-08 19:00N 51°37' E 003°22'714.5
2017-Nov-08 18:30N 51°31' E 003°27'713.7
2017-Nov-08 18:00N 51°26' E 003°35'5 9.5
2017-Nov-08 17:30N 51°25' E 003°43'611.1
2017-Nov-08 17:00N 51°21' E 003°49'1 1.4
2017-Nov-08 16:31N 51°20' E 003°49'3 5.4
2017-Nov-08 16:01N 51°17' E 003°50'2 4.0
2017-Nov-08 15:30N 51°15' E 003°50'2 4.3
2017-Nov-08 15:00N 51°13' E 003°48'1 2.0
2017-Nov-08 14:30N 51°12' E 003°48'0 0.0
2017-Nov-08 14:00N 51°12' E 003°48'0 0.0
2017-Nov-08 13:30N 51°12' E 003°48'0 0.0
2017-Nov-08 13:00N 51°12' E 003°48'0 0.0
2017-Nov-08 12:30N 51°12' E 003°48'0 0.0
2017-Nov-08 12:00N 51°12' E 003°48'0 0.0
2017-Nov-08 11:30N 51°12' E 003°48'0 0.0
2017-Nov-08 11:00N 51°12' E 003°48'0 0.0
2017-Nov-08 10:30N 51°12' E 003°48'0 0.0
2017-Nov-08 10:00N 51°12' E 003°48'0 0.0
2017-Nov-08 09:30N 51°12' E 003°48'0 0.0
2017-Nov-08 09:00N 51°12' E 003°48'0 0.0
2017-Nov-08 08:30N 51°12' E 003°48'0 0.0
2017-Nov-08 08:00N 51°12' E 003°48'0 0.0
2017-Nov-08 07:30N 51°12' E 003°48'0 0.0
2017-Nov-08 07:00N 51°12' E 003°48'0 0.0
2017-Nov-08 06:30N 51°12' E 003°48'  

Dump ship's entire track history